sensor_id;sensor_type;location;lat;lon;timestamp;temperature;humidity
12977;DHT22;6553;48.412;9.514;2023-01-04T00:01:05;18.10;62.90
12977;DHT22;6553;48.412;9.514;2023-01-04T00:03:33;18.10;62.90
12977;DHT22;6553;48.412;9.514;2023-01-04T00:06:00;18.20;63.00
12977;DHT22;6553;48.412;9.514;2023-01-04T00:08:28;18.20;63.00
12977;DHT22;6553;48.412;9.514;2023-01-04T00:11:05;18.10;62.90
12977;DHT22;6553;48.412;9.514;2023-01-04T00:13:33;18.10;62.90
12977;DHT22;6553;48.412;9.514;2023-01-04T00:16:04;18.10;62.90
12977;DHT22;6553;48.412;9.514;2023-01-04T00:18:32;18.10;62.90
12977;DHT22;6553;48.412;9.514;2023-01-04T00:21:13;18.10;62.90
12977;DHT22;6553;48.412;9.514;2023-01-04T00:23:43;18.20;63.00
12977;DHT22;6553;48.412;9.514;2023-01-04T00:26:16;18.10;62.90
12977;DHT22;6553;48.412;9.514;2023-01-04T00:28:46;18.20;63.00
12977;DHT22;6553;48.412;9.514;2023-01-04T00:31:13;18.10;62.90
12977;DHT22;6553;48.412;9.514;2023-01-04T00:33:40;18.20;63.00
12977;DHT22;6553;48.412;9.514;2023-01-04T00:36:12;18.10;62.80
12977;DHT22;6553;48.412;9.514;2023-01-04T00:38:39;18.10;62.80
12977;DHT22;6553;48.412;9.514;2023-01-04T00:41:07;18.10;62.80
12977;DHT22;6553;48.412;9.514;2023-01-04T00:43:34;18.10;62.80
12977;DHT22;6553;48.412;9.514;2023-01-04T00:46:00;18.20;62.90
12977;DHT22;6553;48.412;9.514;2023-01-04T00:48:27;18.20;62.90
12977;DHT22;6553;48.412;9.514;2023-01-04T00:50:54;18.20;63.30
12977;DHT22;6553;48.412;9.514;2023-01-04T00:53:21;18.10;62.80
12977;DHT22;6553;48.412;9.514;2023-01-04T00:55:46;18.20;62.90
12977;DHT22;6553;48.412;9.514;2023-01-04T00:58:13;18.10;62.80
12977;DHT22;6553;48.412;9.514;2023-01-04T01:00:39;18.20;62.90
12977;DHT22;6553;48.412;9.514;2023-01-04T01:03:06;18.20;62.90
12977;DHT22;6553;48.412;9.514;2023-01-04T01:05:33;18.10;62.80
12977;DHT22;6553;48.412;9.514;2023-01-04T01:08:00;18.10;62.80
12977;DHT22;6553;48.412;9.514;2023-01-04T01:10:49;18.10;62.80
12977;DHT22;6553;48.412;9.514;2023-01-04T01:13:15;18.20;62.80
12977;DHT22;6553;48.412;9.514;2023-01-04T01:15:41;18.10;62.70
12977;DHT22;6553;48.412;9.514;2023-01-04T01:18:06;18.10;62.70
12977;DHT22;6553;48.412;9.514;2023-01-04T01:20:32;18.10;62.80
12977;DHT22;6553;48.412;9.514;2023-01-04T01:22:58;18.20;62.70
12977;DHT22;6553;48.412;9.514;2023-01-04T01:25:24;18.20;62.70
12977;DHT22;6553;48.412;9.514;2023-01-04T01:27:49;18.10;62.60
12977;DHT22;6553;48.412;9.514;2023-01-04T01:30:15;18.10;62.60
12977;DHT22;6553;48.412;9.514;2023-01-04T01:32:41;18.20;62.70
12977;DHT22;6553;48.412;9.514;2023-01-04T01:35:07;18.20;62.70
12977;DHT22;6553;48.412;9.514;2023-01-04T01:37:32;18.10;62.60
12977;DHT22;6553;48.412;9.514;2023-01-04T01:39:58;18.10;62.60
12977;DHT22;6553;48.412;9.514;2023-01-04T01:42:24;18.10;62.60
12977;DHT22;6553;48.412;9.514;2023-01-04T01:45:02;18.20;62.70
12977;DHT22;6553;48.412;9.514;2023-01-04T01:47:43;18.20;62.70
12977;DHT22;6553;48.412;9.514;2023-01-04T01:50:23;18.10;62.60
12977;DHT22;6553;48.412;9.514;2023-01-04T01:52:53;18.20;62.70
12977;DHT22;6553;48.412;9.514;2023-01-04T01:55:23;18.20;62.70
12977;DHT22;6553;48.412;9.514;2023-01-04T01:57:49;18.20;62.70
12977;DHT22;6553;48.412;9.514;2023-01-04T02:00:18;18.10;62.60
12977;DHT22;6553;48.412;9.514;2023-01-04T02:02:51;18.20;62.60
12977;DHT22;6553;48.412;9.514;2023-01-04T02:05:24;18.20;62.70
12977;DHT22;6553;48.412;9.514;2023-01-04T02:07:53;18.10;62.60
12977;DHT22;6553;48.412;9.514;2023-01-04T02:10:19;18.10;62.60
12977;DHT22;6553;48.412;9.514;2023-01-04T02:12:45;18.10;62.60
12977;DHT22;6553;48.412;9.514;2023-01-04T02:15:12;18.10;62.60
12977;DHT22;6553;48.412;9.514;2023-01-04T02:18:31;18.20;62.70
12977;DHT22;6553;48.412;9.514;2023-01-04T02:20:49;18.20;62.70
12977;DHT22;6553;48.412;9.514;2023-01-04T02:24:00;18.20;63.00
12977;DHT22;6553;48.412;9.514;2023-01-04T02:27:09;18.20;62.60
12977;DHT22;6553;48.412;9.514;2023-01-04T02:35:31;18.10;62.60
12977;DHT22;6553;48.412;9.514;2023-01-04T02:38:29;18.20;62.60
12977;DHT22;6553;48.412;9.514;2023-01-04T02:41:30;18.10;62.50
12977;DHT22;6553;48.412;9.514;2023-01-04T02:44:07;18.20;62.70
12977;DHT22;6553;48.412;9.514;2023-01-04T02:47:16;18.10;62.60
12977;DHT22;6553;48.412;9.514;2023-01-04T02:50:21;18.20;62.60
12977;DHT22;6553;48.412;9.514;2023-01-04T02:53:05;18.10;62.50
12977;DHT22;6553;48.412;9.514;2023-01-04T02:55:47;18.20;62.60
12977;DHT22;6553;48.412;9.514;2023-01-04T02:58:23;18.10;62.60
12977;DHT22;6553;48.412;9.514;2023-01-04T03:01:59;18.20;62.60
12977;DHT22;6553;48.412;9.514;2023-01-04T03:10:43;18.10;62.60
12977;DHT22;6553;48.412;9.514;2023-01-04T03:13:39;18.10;62.50
12977;DHT22;6553;48.412;9.514;2023-01-04T03:16:12;18.10;62.60
12977;DHT22;6553;48.412;9.514;2023-01-04T03:18:46;18.10;62.60
12977;DHT22;6553;48.412;9.514;2023-01-04T03:21:17;18.10;62.50
12977;DHT22;6553;48.412;9.514;2023-01-04T03:23:46;18.20;62.60
12977;DHT22;6553;48.412;9.514;2023-01-04T03:26:58;18.20;62.70
12977;DHT22;6553;48.412;9.514;2023-01-04T03:30:10;18.20;62.60
12977;DHT22;6553;48.412;9.514;2023-01-04T03:33:06;18.20;62.60
12977;DHT22;6553;48.412;9.514;2023-01-04T03:36:08;18.10;62.50
12977;DHT22;6553;48.412;9.514;2023-01-04T03:39:29;18.20;62.60
12977;DHT22;6553;48.412;9.514;2023-01-04T03:42:36;18.10;62.40
12977;DHT22;6553;48.412;9.514;2023-01-04T03:46:00;18.10;62.50
12977;DHT22;6553;48.412;9.514;2023-01-04T03:49:28;18.10;62.50
12977;DHT22;6553;48.412;9.514;2023-01-04T03:52:00;18.20;62.70
12977;DHT22;6553;48.412;9.514;2023-01-04T03:54:35;18.10;62.50
12977;DHT22;6553;48.412;9.514;2023-01-04T03:57:04;18.20;62.70
12977;DHT22;6553;48.412;9.514;2023-01-04T03:59:33;18.20;62.60
12977;DHT22;6553;48.412;9.514;2023-01-04T04:02:03;18.10;62.50
12977;DHT22;6553;48.412;9.514;2023-01-04T04:04:32;18.20;62.60
12977;DHT22;6553;48.412;9.514;2023-01-04T04:07:17;18.10;62.50
12977;DHT22;6553;48.412;9.514;2023-01-04T04:10:01;18.20;62.70
12977;DHT22;6553;48.412;9.514;2023-01-04T04:12:27;18.10;63.40
12977;DHT22;6553;48.412;9.514;2023-01-04T04:14:53;18.10;62.60
12977;DHT22;6553;48.412;9.514;2023-01-04T04:17:18;18.20;62.60
12977;DHT22;6553;48.412;9.514;2023-01-04T04:19:44;18.10;62.60
12977;DHT22;6553;48.412;9.514;2023-01-04T04:22:10;18.20;62.60
12977;DHT22;6553;48.412;9.514;2023-01-04T04:24:36;18.10;62.60
12977;DHT22;6553;48.412;9.514;2023-01-04T04:27:01;18.10;62.60
12977;DHT22;6553;48.412;9.514;2023-01-04T04:29:27;18.20;62.60
12977;DHT22;6553;48.412;9.514;2023-01-04T04:31:53;18.20;62.60
12977;DHT22;6553;48.412;9.514;2023-01-04T04:34:19;18.20;62.70
12977;DHT22;6553;48.412;9.514;2023-01-04T04:36:45;18.20;62.70
12977;DHT22;6553;48.412;9.514;2023-01-04T04:39:11;18.10;62.60
12977;DHT22;6553;48.412;9.514;2023-01-04T04:41:38;18.20;62.60
12977;DHT22;6553;48.412;9.514;2023-01-04T04:44:07;18.20;62.60
12977;DHT22;6553;48.412;9.514;2023-01-04T04:46:34;18.10;62.50
12977;DHT22;6553;48.412;9.514;2023-01-04T04:49:01;18.20;62.60
12977;DHT22;6553;48.412;9.514;2023-01-04T04:51:27;18.10;62.50
12977;DHT22;6553;48.412;9.514;2023-01-04T04:53:52;18.20;62.60
12977;DHT22;6553;48.412;9.514;2023-01-04T04:56:18;18.10;62.50
12977;DHT22;6553;48.412;9.514;2023-01-04T04:58:44;18.20;62.60
12977;DHT22;6553;48.412;9.514;2023-01-04T05:01:10;18.10;62.50
12977;DHT22;6553;48.412;9.514;2023-01-04T05:03:36;18.20;62.70
12977;DHT22;6553;48.412;9.514;2023-01-04T05:06:02;18.20;62.60
12977;DHT22;6553;48.412;9.514;2023-01-04T05:08:28;18.20;62.60
12977;DHT22;6553;48.412;9.514;2023-01-04T05:10:54;18.10;62.50
12977;DHT22;6553;48.412;9.514;2023-01-04T05:13:20;18.20;62.60
12977;DHT22;6553;48.412;9.514;2023-01-04T05:15:48;18.20;62.60
12977;DHT22;6553;48.412;9.514;2023-01-04T05:18:16;18.20;62.60
12977;DHT22;6553;48.412;9.514;2023-01-04T05:20:43;18.20;62.60
12977;DHT22;6553;48.412;9.514;2023-01-04T05:23:11;18.20;62.60
12977;DHT22;6553;48.412;9.514;2023-01-04T05:25:41;18.20;62.60
12977;DHT22;6553;48.412;9.514;2023-01-04T05:28:08;18.20;62.60
12977;DHT22;6553;48.412;9.514;2023-01-04T05:30:35;18.20;62.50
12977;DHT22;6553;48.412;9.514;2023-01-04T05:33:25;18.20;62.60
12977;DHT22;6553;48.412;9.514;2023-01-04T05:35:53;18.20;62.50
12977;DHT22;6553;48.412;9.514;2023-01-04T05:38:21;18.20;62.50
12977;DHT22;6553;48.412;9.514;2023-01-04T05:40:48;18.20;62.50
12977;DHT22;6553;48.412;9.514;2023-01-04T05:43:15;18.20;62.50
12977;DHT22;6553;48.412;9.514;2023-01-04T05:45:50;18.20;62.50
12977;DHT22;6553;48.412;9.514;2023-01-04T05:48:18;18.20;62.60
12977;DHT22;6553;48.412;9.514;2023-01-04T05:50:44;18.20;62.50
12977;DHT22;6553;48.412;9.514;2023-01-04T05:53:12;18.20;62.50
12977;DHT22;6553;48.412;9.514;2023-01-04T05:55:39;18.20;62.50
12977;DHT22;6553;48.412;9.514;2023-01-04T05:58:04;18.20;62.50
12977;DHT22;6553;48.412;9.514;2023-01-04T06:00:30;18.20;62.50
12977;DHT22;6553;48.412;9.514;2023-01-04T06:02:56;18.20;62.50
12977;DHT22;6553;48.412;9.514;2023-01-04T06:05:24;18.20;62.50
12977;DHT22;6553;48.412;9.514;2023-01-04T06:07:50;18.20;62.50
12977;DHT22;6553;48.412;9.514;2023-01-04T06:10:16;18.20;62.50
12977;DHT22;6553;48.412;9.514;2023-01-04T06:12:42;18.20;62.50
12977;DHT22;6553;48.412;9.514;2023-01-04T06:15:09;18.20;62.50
12977;DHT22;6553;48.412;9.514;2023-01-04T06:17:36;18.20;62.40
12977;DHT22;6553;48.412;9.514;2023-01-04T06:20:03;18.20;62.50
12977;DHT22;6553;48.412;9.514;2023-01-04T06:22:31;18.20;62.50
12977;DHT22;6553;48.412;9.514;2023-01-04T06:24:57;18.20;62.50
12977;DHT22;6553;48.412;9.514;2023-01-04T06:27:24;18.20;62.50
12977;DHT22;6553;48.412;9.514;2023-01-04T06:29:50;18.20;62.50
12977;DHT22;6553;48.412;9.514;2023-01-04T06:32:15;18.20;62.60
12977;DHT22;6553;48.412;9.514;2023-01-04T06:34:41;18.20;62.60
12977;DHT22;6553;48.412;9.514;2023-01-04T06:37:07;18.20;62.50
12977;DHT22;6553;48.412;9.514;2023-01-04T06:39:34;18.20;62.50
12977;DHT22;6553;48.412;9.514;2023-01-04T06:42:01;18.20;62.50
12977;DHT22;6553;48.412;9.514;2023-01-04T06:44:27;18.20;62.50
12977;DHT22;6553;48.412;9.514;2023-01-04T06:46:53;18.20;62.50
12977;DHT22;6553;48.412;9.514;2023-01-04T06:49:18;18.20;62.50
12977;DHT22;6553;48.412;9.514;2023-01-04T06:51:44;18.20;62.50
12977;DHT22;6553;48.412;9.514;2023-01-04T06:54:11;18.20;62.50
12977;DHT22;6553;48.412;9.514;2023-01-04T06:56:38;18.20;62.50
12977;DHT22;6553;48.412;9.514;2023-01-04T06:59:05;18.20;62.60
12977;DHT22;6553;48.412;9.514;2023-01-04T07:01:31;18.20;62.60
12977;DHT22;6553;48.412;9.514;2023-01-04T07:03:57;18.20;62.50
12977;DHT22;6553;48.412;9.514;2023-01-04T07:06:23;18.20;62.60
12977;DHT22;6553;48.412;9.514;2023-01-04T07:08:49;18.20;62.50
12977;DHT22;6553;48.412;9.514;2023-01-04T07:11:14;18.20;62.50
12977;DHT22;6553;48.412;9.514;2023-01-04T07:13:40;18.20;62.50
12977;DHT22;6553;48.412;9.514;2023-01-04T07:16:06;18.20;62.50
12977;DHT22;6553;48.412;9.514;2023-01-04T07:18:32;18.20;62.60
12977;DHT22;6553;48.412;9.514;2023-01-04T07:20:57;18.20;62.60
12977;DHT22;6553;48.412;9.514;2023-01-04T07:23:23;18.20;62.60
12977;DHT22;6553;48.412;9.514;2023-01-04T07:25:49;18.20;62.60
12977;DHT22;6553;48.412;9.514;2023-01-04T07:28:14;18.20;62.60
12977;DHT22;6553;48.412;9.514;2023-01-04T07:31:05;18.20;62.60
12977;DHT22;6553;48.412;9.514;2023-01-04T07:33:31;18.20;62.60
12977;DHT22;6553;48.412;9.514;2023-01-04T07:36:02;18.20;62.60
12977;DHT22;6553;48.412;9.514;2023-01-04T07:38:29;18.20;62.60
12977;DHT22;6553;48.412;9.514;2023-01-04T07:40:55;18.20;62.70
12977;DHT22;6553;48.412;9.514;2023-01-04T07:43:21;18.20;62.60
12977;DHT22;6553;48.412;9.514;2023-01-04T07:45:47;18.20;62.60
12977;DHT22;6553;48.412;9.514;2023-01-04T07:48:12;18.20;62.60
12977;DHT22;6553;48.412;9.514;2023-01-04T07:50:38;18.20;62.60
12977;DHT22;6553;48.412;9.514;2023-01-04T07:53:04;18.20;62.60
12977;DHT22;6553;48.412;9.514;2023-01-04T07:55:30;18.20;62.60
12977;DHT22;6553;48.412;9.514;2023-01-04T07:57:55;18.30;62.70
12977;DHT22;6553;48.412;9.514;2023-01-04T08:00:21;18.30;62.70
12977;DHT22;6553;48.412;9.514;2023-01-04T08:02:48;18.30;62.70
12977;DHT22;6553;48.412;9.514;2023-01-04T08:05:14;18.20;62.60
12977;DHT22;6553;48.412;9.514;2023-01-04T08:07:40;18.20;62.60
12977;DHT22;6553;48.412;9.514;2023-01-04T08:10:06;18.30;62.70
12977;DHT22;6553;48.412;9.514;2023-01-04T08:12:32;18.30;62.70
12977;DHT22;6553;48.412;9.514;2023-01-04T08:14:58;18.30;62.70
12977;DHT22;6553;48.412;9.514;2023-01-04T08:17:23;18.20;63.30
12977;DHT22;6553;48.412;9.514;2023-01-04T08:19:49;18.20;62.60
12977;DHT22;6553;48.412;9.514;2023-01-04T08:22:15;18.30;62.70
12977;DHT22;6553;48.412;9.514;2023-01-04T08:24:41;18.20;62.60
12977;DHT22;6553;48.412;9.514;2023-01-04T08:27:06;18.20;62.60
12977;DHT22;6553;48.412;9.514;2023-01-04T08:29:32;18.30;62.80
12977;DHT22;6553;48.412;9.514;2023-01-04T08:31:58;18.20;62.60
12977;DHT22;6553;48.412;9.514;2023-01-04T08:34:24;18.30;62.70
12977;DHT22;6553;48.412;9.514;2023-01-04T08:36:50;18.20;62.60
12977;DHT22;6553;48.412;9.514;2023-01-04T08:39:18;18.20;62.60
12977;DHT22;6553;48.412;9.514;2023-01-04T08:41:44;18.30;62.80
12977;DHT22;6553;48.412;9.514;2023-01-04T08:44:18;18.30;62.70
12977;DHT22;6553;48.412;9.514;2023-01-04T08:46:50;18.20;62.60
12977;DHT22;6553;48.412;9.514;2023-01-04T08:49:17;18.30;62.70
12977;DHT22;6553;48.412;9.514;2023-01-04T08:51:44;18.30;62.80
12977;DHT22;6553;48.412;9.514;2023-01-04T08:54:10;18.20;62.60
12977;DHT22;6553;48.412;9.514;2023-01-04T08:56:37;18.30;62.70
12977;DHT22;6553;48.412;9.514;2023-01-04T08:59:03;18.30;62.80
12977;DHT22;6553;48.412;9.514;2023-01-04T09:01:33;18.30;62.70
12977;DHT22;6553;48.412;9.514;2023-01-04T09:04:00;18.20;62.60
12977;DHT22;6553;48.412;9.514;2023-01-04T09:06:25;18.20;62.60
12977;DHT22;6553;48.412;9.514;2023-01-04T09:08:52;18.30;62.80
12977;DHT22;6553;48.412;9.514;2023-01-04T09:11:20;18.30;62.80
12977;DHT22;6553;48.412;9.514;2023-01-04T09:13:47;18.30;62.70
12977;DHT22;6553;48.412;9.514;2023-01-04T09:16:18;18.30;62.70
12977;DHT22;6553;48.412;9.514;2023-01-04T09:18:45;18.30;62.80
12977;DHT22;6553;48.412;9.514;2023-01-04T09:21:14;18.30;62.70
12977;DHT22;6553;48.412;9.514;2023-01-04T09:23:43;18.30;62.70
12977;DHT22;6553;48.412;9.514;2023-01-04T09:26:11;18.30;62.70
12977;DHT22;6553;48.412;9.514;2023-01-04T09:28:42;18.30;62.80
12977;DHT22;6553;48.412;9.514;2023-01-04T09:31:13;18.30;62.70
12977;DHT22;6553;48.412;9.514;2023-01-04T09:33:44;18.30;62.70
12977;DHT22;6553;48.412;9.514;2023-01-04T09:36:14;18.30;62.70
12977;DHT22;6553;48.412;9.514;2023-01-04T09:38:41;18.30;62.70
12977;DHT22;6553;48.412;9.514;2023-01-04T09:43:54;18.30;62.70
12977;DHT22;6553;48.412;9.514;2023-01-04T09:46:33;18.30;62.60
12977;DHT22;6553;48.412;9.514;2023-01-04T09:49:25;18.30;62.70
12977;DHT22;6553;48.412;9.514;2023-01-04T09:55:37;18.30;62.70
12977;DHT22;6553;48.412;9.514;2023-01-04T10:03:45;18.30;62.60
12977;DHT22;6553;48.412;9.514;2023-01-04T10:06:16;18.30;62.70
12977;DHT22;6553;48.412;9.514;2023-01-04T10:08:42;18.30;62.70
12977;DHT22;6553;48.412;9.514;2023-01-04T10:14:16;18.30;62.70
12977;DHT22;6553;48.412;9.514;2023-01-04T10:26:58;18.40;62.70
12977;DHT22;6553;48.412;9.514;2023-01-04T10:29:55;18.30;62.70
12977;DHT22;6553;48.412;9.514;2023-01-04T10:32:51;18.30;62.70
12977;DHT22;6553;48.412;9.514;2023-01-04T10:35:26;18.30;62.70
12977;DHT22;6553;48.412;9.514;2023-01-04T10:38:01;18.30;62.70
12977;DHT22;6553;48.412;9.514;2023-01-04T10:40:32;18.30;62.70
12977;DHT22;6553;48.412;9.514;2023-01-04T10:48:52;18.30;62.70
12977;DHT22;6553;48.412;9.514;2023-01-04T10:51:34;18.30;62.70
12977;DHT22;6553;48.412;9.514;2023-01-04T10:54:27;18.40;62.80
12977;DHT22;6553;48.412;9.514;2023-01-04T10:57:03;18.40;62.80
12977;DHT22;6553;48.412;9.514;2023-01-04T11:00:00;18.40;62.80
12977;DHT22;6553;48.412;9.514;2023-01-04T11:08:41;18.30;62.70
12977;DHT22;6553;48.412;9.514;2023-01-04T11:11:23;18.40;62.80
12977;DHT22;6553;48.412;9.514;2023-01-04T11:13:52;18.40;62.80
12977;DHT22;6553;48.412;9.514;2023-01-04T11:16:18;18.40;62.80
12977;DHT22;6553;48.412;9.514;2023-01-04T11:18:46;18.40;62.90
12977;DHT22;6553;48.412;9.514;2023-01-04T11:21:17;18.40;62.80
12977;DHT22;6553;48.412;9.514;2023-01-04T11:23:47;18.40;62.80
12977;DHT22;6553;48.412;9.514;2023-01-04T11:26:18;18.40;62.70
12977;DHT22;6553;48.412;9.514;2023-01-04T11:31:46;18.40;62.80
12977;DHT22;6553;48.412;9.514;2023-01-04T11:34:15;18.40;62.80
12977;DHT22;6553;48.412;9.514;2023-01-04T11:36:46;18.40;62.70
12977;DHT22;6553;48.412;9.514;2023-01-04T11:39:25;18.40;62.70
12977;DHT22;6553;48.412;9.514;2023-01-04T11:41:59;18.40;62.70
12977;DHT22;6553;48.412;9.514;2023-01-04T11:44:33;18.40;62.70
12977;DHT22;6553;48.412;9.514;2023-01-04T11:49:34;18.40;62.70
12977;DHT22;6553;48.412;9.514;2023-01-04T11:52:01;18.40;62.70
12977;DHT22;6553;48.412;9.514;2023-01-04T11:54:28;18.40;62.80
12977;DHT22;6553;48.412;9.514;2023-01-04T11:59:28;18.40;62.80
12977;DHT22;6553;48.412;9.514;2023-01-04T12:02:20;18.40;62.80
12977;DHT22;6553;48.412;9.514;2023-01-04T12:04:50;18.40;62.80
12977;DHT22;6553;48.412;9.514;2023-01-04T12:07:29;18.40;62.90
12977;DHT22;6553;48.412;9.514;2023-01-04T12:09:58;18.40;62.80
12977;DHT22;6553;48.412;9.514;2023-01-04T12:12:33;18.40;62.90
12977;DHT22;6553;48.412;9.514;2023-01-04T12:15:03;18.40;62.80
12977;DHT22;6553;48.412;9.514;2023-01-04T12:17:52;18.40;62.80
12977;DHT22;6553;48.412;9.514;2023-01-04T12:20:25;18.40;62.80
12977;DHT22;6553;48.412;9.514;2023-01-04T12:22:53;18.40;62.80
12977;DHT22;6553;48.412;9.514;2023-01-04T12:25:40;18.40;62.90
12977;DHT22;6553;48.412;9.514;2023-01-04T12:28:33;18.40;62.80
12977;DHT22;6553;48.412;9.514;2023-01-04T12:33:45;18.40;62.90
12977;DHT22;6553;48.412;9.514;2023-01-04T12:36:18;18.40;62.80
12977;DHT22;6553;48.412;9.514;2023-01-04T12:47:01;18.40;62.80
12977;DHT22;6553;48.412;9.514;2023-01-04T13:00:00;18.40;62.80
12977;DHT22;6553;48.412;9.514;2023-01-04T13:02:33;18.40;62.80
12977;DHT22;6553;48.412;9.514;2023-01-04T13:07:58;18.40;62.80
12977;DHT22;6553;48.412;9.514;2023-01-04T13:10:53;18.40;62.80
12977;DHT22;6553;48.412;9.514;2023-01-04T13:13:56;18.40;62.90
12977;DHT22;6553;48.412;9.514;2023-01-04T13:16:40;18.40;62.90
12977;DHT22;6553;48.412;9.514;2023-01-04T13:19:24;18.40;63.60
12977;DHT22;6553;48.412;9.514;2023-01-04T13:21:53;18.40;62.90
12977;DHT22;6553;48.412;9.514;2023-01-04T13:24:26;18.40;62.80
12977;DHT22;6553;48.412;9.514;2023-01-04T13:26:55;18.40;62.90
12977;DHT22;6553;48.412;9.514;2023-01-04T13:32:04;18.40;62.90
12977;DHT22;6553;48.412;9.514;2023-01-04T13:39:41;18.40;62.90
12977;DHT22;6553;48.412;9.514;2023-01-04T13:42:35;18.40;62.90
12977;DHT22;6553;48.412;9.514;2023-01-04T13:47:51;18.40;62.90
12977;DHT22;6553;48.412;9.514;2023-01-04T13:50:37;18.40;62.90
12977;DHT22;6553;48.412;9.514;2023-01-04T13:53:20;18.40;62.80
12977;DHT22;6553;48.412;9.514;2023-01-04T13:55:56;18.40;62.90
12977;DHT22;6553;48.412;9.514;2023-01-04T13:58:27;18.40;62.80
12977;DHT22;6553;48.412;9.514;2023-01-04T14:12:00;18.40;63.00
12977;DHT22;6553;48.412;9.514;2023-01-04T14:30:45;18.40;62.90
12977;DHT22;6553;48.412;9.514;2023-01-04T14:38:53;18.40;62.90
12977;DHT22;6553;48.412;9.514;2023-01-04T14:41:39;18.40;62.90
12977;DHT22;6553;48.412;9.514;2023-01-04T14:44:14;18.40;62.90
12977;DHT22;6553;48.412;9.514;2023-01-04T14:46:43;18.40;62.90
12977;DHT22;6553;48.412;9.514;2023-01-04T14:49:12;18.40;62.90
12977;DHT22;6553;48.412;9.514;2023-01-04T14:51:46;18.40;62.90
12977;DHT22;6553;48.412;9.514;2023-01-04T14:54:15;18.40;62.80
12977;DHT22;6553;48.412;9.514;2023-01-04T14:56:41;18.40;62.90
12977;DHT22;6553;48.412;9.514;2023-01-04T14:59:08;18.40;62.90
12977;DHT22;6553;48.412;9.514;2023-01-04T15:01:34;18.40;62.90
12977;DHT22;6553;48.412;9.514;2023-01-04T15:04:04;18.40;62.90
12977;DHT22;6553;48.412;9.514;2023-01-04T15:06:32;18.40;63.00
12977;DHT22;6553;48.412;9.514;2023-01-04T15:08:58;18.40;62.90
12977;DHT22;6553;48.412;9.514;2023-01-04T15:11:24;18.40;63.00
12977;DHT22;6553;48.412;9.514;2023-01-04T15:13:50;18.40;62.90
12977;DHT22;6553;48.412;9.514;2023-01-04T15:16:17;18.40;63.00
12977;DHT22;6553;48.412;9.514;2023-01-04T15:18:44;18.40;63.00
12977;DHT22;6553;48.412;9.514;2023-01-04T15:21:11;18.40;63.20
12977;DHT22;6553;48.412;9.514;2023-01-04T15:23:37;18.40;63.00
12977;DHT22;6553;48.412;9.514;2023-01-04T15:26:09;18.40;63.10
12977;DHT22;6553;48.412;9.514;2023-01-04T15:28:36;18.40;63.10
12977;DHT22;6553;48.412;9.514;2023-01-04T15:31:07;18.40;63.00
12977;DHT22;6553;48.412;9.514;2023-01-04T15:33:34;18.40;63.00
12977;DHT22;6553;48.412;9.514;2023-01-04T15:36:01;18.40;63.00
12977;DHT22;6553;48.412;9.514;2023-01-04T15:38:28;18.40;63.00
12977;DHT22;6553;48.412;9.514;2023-01-04T15:41:05;18.40;63.00
12977;DHT22;6553;48.412;9.514;2023-01-04T15:43:36;18.40;63.00
12977;DHT22;6553;48.412;9.514;2023-01-04T15:46:04;18.40;63.00
12977;DHT22;6553;48.412;9.514;2023-01-04T15:48:35;18.40;63.00
12977;DHT22;6553;48.412;9.514;2023-01-04T15:51:05;18.40;63.00
12977;DHT22;6553;48.412;9.514;2023-01-04T15:53:34;18.40;63.10
12977;DHT22;6553;48.412;9.514;2023-01-04T15:56:05;18.40;63.10
12977;DHT22;6553;48.412;9.514;2023-01-04T15:58:38;18.40;63.10
12977;DHT22;6553;48.412;9.514;2023-01-04T16:01:11;18.40;63.00
12977;DHT22;6553;48.412;9.514;2023-01-04T16:03:38;18.40;62.90
12977;DHT22;6553;48.412;9.514;2023-01-04T16:06:11;18.40;62.90
12977;DHT22;6553;48.412;9.514;2023-01-04T16:08:39;18.40;62.90
12977;DHT22;6553;48.412;9.514;2023-01-04T16:13:41;18.40;62.90
12977;DHT22;6553;48.412;9.514;2023-01-04T16:16:08;18.40;62.80
12977;DHT22;6553;48.412;9.514;2023-01-04T16:18:34;18.40;62.90
12977;DHT22;6553;48.412;9.514;2023-01-04T16:21:04;18.40;62.90
12977;DHT22;6553;48.412;9.514;2023-01-04T16:23:31;18.40;62.90
12977;DHT22;6553;48.412;9.514;2023-01-04T16:26:11;18.40;62.90
12977;DHT22;6553;48.412;9.514;2023-01-04T16:28:39;18.40;62.90
12977;DHT22;6553;48.412;9.514;2023-01-04T16:31:06;18.40;62.90
12977;DHT22;6553;48.412;9.514;2023-01-04T16:33:33;18.40;62.90
12977;DHT22;6553;48.412;9.514;2023-01-04T16:36:09;18.40;62.90
12977;DHT22;6553;48.412;9.514;2023-01-04T16:38:37;18.40;62.90
12977;DHT22;6553;48.412;9.514;2023-01-04T16:41:05;18.40;62.90
12977;DHT22;6553;48.412;9.514;2023-01-04T16:43:42;18.40;63.00
12977;DHT22;6553;48.412;9.514;2023-01-04T16:46:22;18.40;63.00
12977;DHT22;6553;48.412;9.514;2023-01-04T16:48:55;18.40;62.90
12977;DHT22;6553;48.412;9.514;2023-01-04T16:51:24;18.40;62.90
12977;DHT22;6553;48.412;9.514;2023-01-04T16:53:53;18.40;63.00
12977;DHT22;6553;48.412;9.514;2023-01-04T16:56:21;18.40;62.90
12977;DHT22;6553;48.412;9.514;2023-01-04T16:58:48;18.40;63.00
12977;DHT22;6553;48.412;9.514;2023-01-04T17:01:17;18.40;63.00
12977;DHT22;6553;48.412;9.514;2023-01-04T17:03:45;18.40;63.00
12977;DHT22;6553;48.412;9.514;2023-01-04T17:06:19;18.40;63.00
12977;DHT22;6553;48.412;9.514;2023-01-04T17:08:50;18.40;63.00
12977;DHT22;6553;48.412;9.514;2023-01-04T17:11:21;18.50;63.10
12977;DHT22;6553;48.412;9.514;2023-01-04T17:13:48;18.40;63.00
12977;DHT22;6553;48.412;9.514;2023-01-04T17:16:14;18.40;63.00
12977;DHT22;6553;48.412;9.514;2023-01-04T17:18:40;18.40;63.00
12977;DHT22;6553;48.412;9.514;2023-01-04T17:21:10;18.40;63.00
12977;DHT22;6553;48.412;9.514;2023-01-04T17:23:40;18.40;63.00
12977;DHT22;6553;48.412;9.514;2023-01-04T17:26:10;18.40;63.00
12977;DHT22;6553;48.412;9.514;2023-01-04T17:28:38;18.40;63.10
12977;DHT22;6553;48.412;9.514;2023-01-04T17:31:07;18.40;63.10
12977;DHT22;6553;48.412;9.514;2023-01-04T17:33:40;18.40;63.00
12977;DHT22;6553;48.412;9.514;2023-01-04T17:36:08;18.40;63.10
12977;DHT22;6553;48.412;9.514;2023-01-04T17:38:37;18.40;63.10
12977;DHT22;6553;48.412;9.514;2023-01-04T17:41:10;18.40;63.10
12977;DHT22;6553;48.412;9.514;2023-01-04T17:43:38;18.40;63.10
12977;DHT22;6553;48.412;9.514;2023-01-04T17:46:08;18.40;63.10
12977;DHT22;6553;48.412;9.514;2023-01-04T17:48:39;18.40;63.10
12977;DHT22;6553;48.412;9.514;2023-01-04T17:53:38;18.40;63.10
12977;DHT22;6553;48.412;9.514;2023-01-04T17:56:10;18.40;63.20
12977;DHT22;6553;48.412;9.514;2023-01-04T17:58:38;18.40;63.10
12977;DHT22;6553;48.412;9.514;2023-01-04T18:03:45;18.50;63.30
12977;DHT22;6553;48.412;9.514;2023-01-04T18:06:14;18.40;63.20
12977;DHT22;6553;48.412;9.514;2023-01-04T18:08:41;18.50;63.30
12977;DHT22;6553;48.412;9.514;2023-01-04T18:11:07;18.40;63.20
12977;DHT22;6553;48.412;9.514;2023-01-04T18:13:35;18.40;63.20
12977;DHT22;6553;48.412;9.514;2023-01-04T18:16:05;18.50;63.30
12977;DHT22;6553;48.412;9.514;2023-01-04T18:18:33;18.40;63.20
12977;DHT22;6553;48.412;9.514;2023-01-04T18:21:18;18.40;63.20
12977;DHT22;6553;48.412;9.514;2023-01-04T18:23:47;18.40;63.20
12977;DHT22;6553;48.412;9.514;2023-01-04T18:26:15;18.50;63.30